createdAt,value
2017-10-26T00:01:13.221Z,101787
2017-10-26T00:03:39.404Z,101783
2017-10-26T00:06:05.853Z,101776
2017-10-26T00:08:32.044Z,101786
2017-10-26T00:10:58.334Z,101791
2017-10-26T00:13:24.555Z,101787
2017-10-26T00:15:51.464Z,101790
2017-10-26T00:18:17.668Z,101805
2017-10-26T00:20:43.886Z,101815
2017-10-26T00:23:10.091Z,101813
2017-10-26T00:25:36.275Z,101800
2017-10-26T00:28:02.513Z,101806
2017-10-26T00:30:28.692Z,101812
2017-10-26T00:32:54.881Z,101810
2017-10-26T00:35:21.865Z,101813
2017-10-26T00:37:48.174Z,101808
2017-10-26T00:40:14.373Z,101815
2017-10-26T00:42:41.485Z,101812
2017-10-26T00:45:07.665Z,101805
2017-10-26T00:47:34.597Z,101806
2017-10-26T00:50:01.574Z,101807
2017-10-26T00:52:27.740Z,101802
2017-10-26T00:54:53.938Z,101812
2017-10-26T00:57:20.191Z,101820
2017-10-26T00:59:46.440Z,101820
2017-10-26T01:02:12.635Z,101815
2017-10-26T01:04:38.864Z,101814
2017-10-26T01:07:05.128Z,101815
2017-10-26T01:09:31.312Z,101815
2017-10-26T01:11:57.485Z,101810
2017-10-26T01:14:23.665Z,101807
2017-10-26T01:16:49.856Z,101813
2017-10-26T01:19:16.816Z,101813
2017-10-26T01:21:43.023Z,101808
2017-10-26T01:24:10.203Z,101801
2017-10-26T01:26:36.400Z,101803
2017-10-26T01:29:03.333Z,101806
2017-10-26T01:31:30.936Z,101809
2017-10-26T01:33:58.777Z,101814
2017-10-26T01:36:25.069Z,101804
2017-10-26T01:38:51.302Z,101805
2017-10-26T01:41:17.476Z,101802
2017-10-26T01:43:43.663Z,101798
2017-10-26T01:46:10.137Z,101801
2017-10-26T01:48:36.321Z,101802
2017-10-26T01:51:02.539Z,101802
2017-10-26T01:53:29.035Z,101803
2017-10-26T01:55:55.231Z,101808
2017-10-26T01:58:22.188Z,101807
2017-10-26T02:00:49.132Z,101803
2017-10-26T02:03:15.320Z,101796
2017-10-26T02:05:42.436Z,101798
2017-10-26T02:08:08.971Z,101791
2017-10-26T02:10:35.152Z,101798
2017-10-26T02:13:01.383Z,101803
2017-10-26T02:15:28.319Z,101789
2017-10-26T02:17:54.500Z,101798
2017-10-26T02:20:20.798Z,101791
2017-10-26T02:22:47.727Z,101790
2017-10-26T02:25:14.645Z,101789
2017-10-26T02:27:40.843Z,101777
2017-10-26T02:30:25.520Z,101774
2017-10-26T02:32:51.704Z,101781
2017-10-26T02:35:17.913Z,101790
2017-10-26T02:37:44.828Z,101795
2017-10-26T02:40:11.028Z,101795
2017-10-26T02:42:37.207Z,101795
2017-10-26T02:45:03.440Z,101783
2017-10-26T02:47:30.375Z,101786
2017-10-26T02:49:56.557Z,101767
2017-10-26T02:52:22.743Z,101773
2017-10-26T02:54:49.654Z,101789
2017-10-26T02:57:15.835Z,101786
2017-10-26T02:59:42.087Z,101787
2017-10-26T03:02:08.275Z,101795
2017-10-26T03:04:34.465Z,101793
2017-10-26T03:07:00.711Z,101782
2017-10-26T03:09:26.888Z,101790
2017-10-26T03:11:53.045Z,101787
2017-10-26T03:14:19.273Z,101794
2017-10-26T03:16:45.477Z,101796
2017-10-26T03:19:11.708Z,101794
2017-10-26T03:21:37.889Z,101806
2017-10-26T03:24:04.807Z,101798
2017-10-26T03:26:31.159Z,101793
2017-10-26T03:28:58.076Z,101791
2017-10-26T03:31:24.244Z,101791
2017-10-26T03:33:51.184Z,101797
2017-10-26T03:36:18.089Z,101806
2017-10-26T03:38:44.247Z,101801
2017-10-26T03:41:11.188Z,101806
2017-10-26T03:43:38.110Z,101804
2017-10-26T03:46:04.314Z,101801
2017-10-26T03:48:30.529Z,101801
2017-10-26T03:50:56.784Z,101799
2017-10-26T03:53:22.947Z,101795
2017-10-26T03:55:49.855Z,101807
2017-10-26T03:58:16.012Z,101806
2017-10-26T04:00:43.256Z,101808
2017-10-26T04:03:10.201Z,101821
2017-10-26T04:05:36.356Z,101819
2017-10-26T04:08:02.552Z,101815
2017-10-26T04:10:28.727Z,101812
2017-10-26T04:12:54.908Z,101807
2017-10-26T04:15:21.088Z,101798
2017-10-26T04:17:47.300Z,101783
2017-10-26T04:20:13.520Z,101775
2017-10-26T04:22:39.726Z,101779
2017-10-26T04:25:06.688Z,101775
2017-10-26T04:27:33.600Z,101767
2017-10-26T04:29:59.787Z,101761
2017-10-26T04:32:26.036Z,101757
2017-10-26T04:34:52.221Z,101754
2017-10-26T04:37:18.395Z,101751
2017-10-26T04:39:44.632Z,101753
2017-10-26T04:42:10.799Z,101774
2017-10-26T04:44:36.983Z,101776
2017-10-26T04:47:03.260Z,101770
2017-10-26T04:49:29.429Z,101770
2017-10-26T04:51:55.622Z,101761
2017-10-26T04:54:21.782Z,101771
2017-10-26T04:56:47.944Z,101776
2017-10-26T04:59:14.911Z,101779
2017-10-26T05:01:41.076Z,101773
2017-10-26T05:04:07.255Z,101766
2017-10-26T05:06:34.187Z,101763
2017-10-26T05:09:01.100Z,101768
2017-10-26T05:11:28.015Z,101766
2017-10-26T05:13:54.549Z,101768
2017-10-26T05:16:20.836Z,101776
2017-10-26T05:18:48.122Z,101764
2017-10-26T05:21:14.285Z,101761
2017-10-26T05:23:40.448Z,101758
2017-10-26T05:26:07.391Z,101743
2017-10-26T05:28:34.303Z,101740
2017-10-26T05:31:01.224Z,101746
2017-10-26T05:33:27.495Z,101752
2017-10-26T05:35:53.701Z,101751
2017-10-26T05:38:19.895Z,101756
2017-10-26T05:40:46.148Z,101757
2017-10-26T05:43:12.383Z,101750
2017-10-26T05:45:38.590Z,101745
2017-10-26T05:48:04.809Z,101732
2017-10-26T05:50:30.993Z,101725
2017-10-26T05:52:57.176Z,101735
2017-10-26T05:55:23.482Z,101750
2017-10-26T05:57:49.659Z,101742
2017-10-26T06:00:15.877Z,101739
2017-10-26T06:02:42.100Z,101759
2017-10-26T06:05:08.262Z,101762
2017-10-26T06:07:35.253Z,101751
2017-10-26T06:10:02.204Z,101744
2017-10-26T06:12:28.361Z,101745
2017-10-26T06:14:54.524Z,101746
2017-10-26T06:17:20.737Z,101743
2017-10-26T06:19:47.657Z,101741
2017-10-26T06:22:13.821Z,101746
2017-10-26T06:24:41.093Z,101753
2017-10-26T06:27:07.260Z,101758
2017-10-26T06:29:33.516Z,101766
2017-10-26T06:32:00.609Z,101773
2017-10-26T06:34:26.792Z,101770
2017-10-26T06:36:53.700Z,101768
2017-10-26T06:39:19.872Z,101761
2017-10-26T06:41:46.794Z,101761
2017-10-26T06:44:12.953Z,101761
2017-10-26T06:46:39.452Z,101763
2017-10-26T06:49:06.408Z,101760
2017-10-26T06:51:33.311Z,101758
2017-10-26T06:53:59.491Z,101751
2017-10-26T06:56:26.445Z,101761
2017-10-26T06:58:52.608Z,101757
2017-10-26T07:01:18.817Z,101756
2017-10-26T07:03:44.977Z,101755
2017-10-26T07:06:11.893Z,101761
2017-10-26T07:08:38.312Z,101769
2017-10-26T07:11:04.467Z,101769
2017-10-26T07:13:30.639Z,101764
2017-10-26T07:15:57.572Z,101765
2017-10-26T07:18:23.744Z,101766
2017-10-26T07:20:49.925Z,101767
2017-10-26T07:23:16.903Z,101761
2017-10-26T07:25:43.085Z,101774
2017-10-26T07:28:09.277Z,101774
2017-10-26T07:30:35.698Z,101777
2017-10-26T07:33:01.871Z,101784
2017-10-26T07:35:28.084Z,101784
2017-10-26T07:37:54.285Z,101777
2017-10-26T07:40:20.466Z,101777
2017-10-26T07:42:47.412Z,101784
2017-10-26T07:45:14.405Z,101779
2017-10-26T07:47:40.584Z,101777
2017-10-26T07:50:07.544Z,101784
2017-10-26T07:52:34.528Z,101782
2017-10-26T07:55:00.772Z,101778
2017-10-26T07:57:27.467Z,101772
2017-10-26T07:59:53.659Z,101779
2017-10-26T08:02:19.845Z,101772
2017-10-26T08:04:46.047Z,101770
2017-10-26T08:07:12.235Z,101766
2017-10-26T08:09:38.424Z,101763
2017-10-26T08:12:04.682Z,101759
2017-10-26T08:14:31.612Z,101755
2017-10-26T08:16:57.843Z,101757
2017-10-26T08:19:24.054Z,101756
2017-10-26T08:21:50.272Z,101753
2017-10-26T08:24:16.533Z,101755
2017-10-26T08:26:42.704Z,101754
2017-10-26T08:29:09.632Z,101754
2017-10-26T08:31:36.573Z,101752
2017-10-26T08:34:02.756Z,101746
2017-10-26T08:36:28.957Z,101744
2017-10-26T08:38:55.153Z,101751
2017-10-26T08:41:21.331Z,101751
2017-10-26T08:43:47.843Z,101754
2017-10-26T08:46:14.041Z,101756
2017-10-26T08:48:40.226Z,101758
2017-10-26T08:51:06.416Z,101751
2017-10-26T08:53:33.381Z,101750
2017-10-26T08:55:59.573Z,101749
2017-10-26T08:58:26.543Z,101750
2017-10-26T09:00:52.802Z,101756
2017-10-26T09:03:18.992Z,101757
2017-10-26T09:05:45.220Z,101761
2017-10-26T09:08:12.165Z,101752
2017-10-26T09:10:39.075Z,101749
2017-10-26T09:13:05.269Z,101741
2017-10-26T09:15:32.539Z,101728
2017-10-26T09:17:58.787Z,101727
2017-10-26T09:20:25.036Z,101736
2017-10-26T09:22:51.236Z,101741
2017-10-26T09:25:17.483Z,101736
2017-10-26T09:27:44.449Z,101738
2017-10-26T09:30:10.651Z,101745
2017-10-26T09:32:36.864Z,101746
2017-10-26T09:35:03.090Z,101731
2017-10-26T09:37:29.292Z,101736
2017-10-26T09:39:55.510Z,101730
2017-10-26T09:42:21.687Z,101735
2017-10-26T09:44:47.888Z,101727
2017-10-26T09:47:14.195Z,101733
2017-10-26T09:49:40.398Z,101733
2017-10-26T09:52:06.584Z,101732
2017-10-26T09:54:32.790Z,101732
2017-10-26T09:56:58.979Z,101731
2017-10-26T09:59:25.170Z,101732
2017-10-26T10:01:51.421Z,101732
2017-10-26T10:04:18.363Z,101732
2017-10-26T10:06:45.282Z,101722
2017-10-26T10:09:11.578Z,101739
2017-10-26T10:11:37.742Z,101734
2017-10-26T10:14:04.002Z,101744
2017-10-26T10:16:31.300Z,101743
2017-10-26T10:18:57.497Z,101743
2017-10-26T10:21:23.679Z,101742
2017-10-26T10:23:49.906Z,101731
2017-10-26T10:26:16.884Z,101730
2017-10-26T10:28:43.078Z,101729
2017-10-26T10:31:09.397Z,101723
2017-10-26T10:33:35.629Z,101723
2017-10-26T10:36:01.847Z,101722
2017-10-26T10:38:28.064Z,101729
2017-10-26T10:40:55.179Z,101727
2017-10-26T10:43:21.367Z,101731
2017-10-26T10:45:47.557Z,101729
2017-10-26T10:48:13.798Z,101723
2017-10-26T10:50:39.987Z,101716
2017-10-26T10:53:06.913Z,101720
2017-10-26T10:55:33.900Z,101710
2017-10-26T10:58:00.103Z,101706
2017-10-26T11:00:33.151Z,101703
2017-10-26T11:02:59.373Z,101691
2017-10-26T11:05:25.571Z,101694
2017-10-26T11:07:51.771Z,101693
2017-10-26T11:10:18.783Z,101703
2017-10-26T11:12:44.988Z,101704
2017-10-26T11:15:11.199Z,101699
2017-10-26T11:17:37.678Z,101690
2017-10-26T11:20:04.109Z,101688
2017-10-26T11:22:30.299Z,101686
2017-10-26T11:24:56.671Z,101684
2017-10-26T11:27:22.854Z,101685
2017-10-26T11:29:49.080Z,101688
2017-10-26T11:32:15.708Z,101679
2017-10-26T11:34:41.948Z,101680
2017-10-26T11:37:08.148Z,101680
2017-10-26T11:39:34.508Z,101670
2017-10-26T11:42:01.128Z,101674
2017-10-26T11:44:27.613Z,101672
2017-10-26T11:46:54.664Z,101673
2017-10-26T11:49:20.856Z,101662
2017-10-26T11:51:47.046Z,101660
2017-10-26T11:54:14.105Z,101668
2017-10-26T11:56:40.292Z,101671
2017-10-26T11:59:06.903Z,101669
2017-10-26T12:01:33.952Z,101664
2017-10-26T12:04:00.457Z,101656
2017-10-26T12:06:26.873Z,101645
2017-10-26T12:08:53.124Z,101644
2017-10-26T12:11:19.433Z,101642
2017-10-26T12:13:46.356Z,101638
2017-10-26T12:16:12.604Z,101649
2017-10-26T12:18:39.572Z,101639
2017-10-26T12:21:05.998Z,101643
2017-10-26T12:23:32.246Z,101633
2017-10-26T12:25:58.480Z,101633
2017-10-26T12:28:24.695Z,101627
2017-10-26T12:30:50.910Z,101628
2017-10-26T12:33:17.139Z,101622
2017-10-26T12:35:43.336Z,101626
2017-10-26T12:38:10.633Z,101621
2017-10-26T12:40:36.891Z,101608
2017-10-26T12:43:03.468Z,101606
2017-10-26T12:45:30.431Z,101601
2017-10-26T12:47:56.626Z,101605
2017-10-26T12:50:23.553Z,101597
2017-10-26T12:52:50.096Z,101600
2017-10-26T12:55:16.448Z,101604
2017-10-26T12:57:43.604Z,101613
2017-10-26T13:00:10.156Z,101621
2017-10-26T13:02:37.408Z,101616
2017-10-26T13:05:04.277Z,101619
2017-10-26T13:07:30.493Z,101616
2017-10-26T13:09:56.702Z,101619
2017-10-26T13:12:22.900Z,101618
2017-10-26T13:14:50.073Z,101616
2017-10-26T13:17:16.579Z,101619
2017-10-26T13:19:43.651Z,101612
2017-10-26T13:22:10.387Z,101613
2017-10-26T13:24:36.690Z,101608
2017-10-26T13:27:02.915Z,101603
2017-10-26T13:29:29.116Z,101604
2017-10-26T13:31:55.518Z,101600
2017-10-26T13:34:22.689Z,101609
2017-10-26T13:36:49.294Z,101607
2017-10-26T13:39:15.681Z,101588
2017-10-26T13:41:41.940Z,101602
2017-10-26T13:44:09.331Z,101605
2017-10-26T13:46:35.518Z,101600
2017-10-26T13:49:02.504Z,101599
2017-10-26T13:51:28.749Z,101590
2017-10-26T13:53:55.052Z,101592
2017-10-26T13:56:21.446Z,101598
2017-10-26T13:58:47.696Z,101602
2017-10-26T14:01:14.614Z,101601
2017-10-26T14:03:40.827Z,101604
2017-10-26T14:06:07.048Z,101596
2017-10-26T14:08:33.238Z,101596
2017-10-26T14:10:59.432Z,101597
2017-10-26T14:13:26.387Z,101593
2017-10-26T14:15:53.311Z,101598
2017-10-26T14:18:19.463Z,101590
2017-10-26T14:20:46.724Z,101586
2017-10-26T14:23:12.886Z,101592
2017-10-26T14:25:39.048Z,101587
2017-10-26T14:28:05.967Z,101586
2017-10-26T14:30:32.164Z,101584
2017-10-26T14:32:58.324Z,101586
2017-10-26T14:35:24.511Z,101592
2017-10-26T14:37:50.738Z,101585
2017-10-26T14:40:16.943Z,101587
2017-10-26T14:42:43.840Z,101579
2017-10-26T14:45:10.038Z,101579
2017-10-26T14:47:36.196Z,101581
2017-10-26T14:50:02.361Z,101582
2017-10-26T14:52:29.320Z,101577
2017-10-26T14:54:56.234Z,101575
2017-10-26T14:57:22.404Z,101577
2017-10-26T14:59:48.601Z,101570
2017-10-26T15:02:15.506Z,101558
2017-10-26T15:04:41.665Z,101566
2017-10-26T15:07:08.628Z,101569
2017-10-26T15:09:35.552Z,101565
2017-10-26T15:12:01.714Z,101565
2017-10-26T15:14:28.006Z,101569
2017-10-26T15:16:54.155Z,101565
2017-10-26T15:19:21.051Z,101564
2017-10-26T15:21:47.227Z,101561
2017-10-26T15:24:14.132Z,101561
2017-10-26T15:26:40.306Z,101562
2017-10-26T15:29:06.499Z,101563
2017-10-26T15:31:33.417Z,101570
2017-10-26T15:33:59.641Z,101567
2017-10-26T15:36:26.863Z,101563
2017-10-26T15:38:53.051Z,101560
2017-10-26T15:41:19.217Z,101558
2017-10-26T15:43:45.402Z,101563
2017-10-26T15:46:11.605Z,101561
2017-10-26T15:48:37.763Z,101558
2017-10-26T15:51:05.070Z,101554
2017-10-26T15:53:31.245Z,101556
2017-10-26T15:55:58.148Z,101558
2017-10-26T15:58:24.356Z,101543
2017-10-26T16:00:50.510Z,101541
2017-10-26T16:03:16.712Z,101544
2017-10-26T16:05:43.154Z,101547
2017-10-26T16:08:09.320Z,101541
2017-10-26T16:10:35.521Z,101543
2017-10-26T16:13:01.919Z,101541
2017-10-26T16:15:28.107Z,101537
2017-10-26T16:17:54.278Z,101536
2017-10-26T16:20:20.988Z,101536
2017-10-26T16:22:47.905Z,101536
2017-10-26T16:25:14.079Z,101531
2017-10-26T16:27:40.271Z,101527
2017-10-26T16:30:06.457Z,101531
2017-10-26T16:32:32.625Z,101529
2017-10-26T16:34:58.818Z,101528
2017-10-26T16:37:24.975Z,101532
2017-10-26T16:39:51.132Z,101524
2017-10-26T16:42:17.309Z,101526
2017-10-26T16:44:43.460Z,101524
2017-10-26T16:47:10.401Z,101518
2017-10-26T16:49:37.323Z,101515
2017-10-26T16:52:03.525Z,101516
2017-10-26T16:54:29.727Z,101521
2017-10-26T16:56:55.896Z,101515
2017-10-26T16:59:22.090Z,101521
2017-10-26T17:01:48.305Z,101525
2017-10-26T17:04:15.217Z,101528
2017-10-26T17:06:41.392Z,101529
2017-10-26T17:09:07.596Z,101526
2017-10-26T17:11:34.519Z,101528
2017-10-26T17:14:00.700Z,101526
2017-10-26T17:16:26.901Z,101523
2017-10-26T17:18:53.080Z,101525
2017-10-26T17:21:19.273Z,101525
2017-10-26T17:23:45.456Z,101518
2017-10-26T17:26:11.611Z,101519
2017-10-26T17:28:37.912Z,101511
2017-10-26T17:31:04.089Z,101501
2017-10-26T17:33:30.273Z,101509
2017-10-26T17:35:58.071Z,101505
2017-10-26T17:38:24.268Z,101502
2017-10-26T17:40:51.180Z,101505
2017-10-26T17:43:17.353Z,101496
2017-10-26T17:45:44.625Z,101490
2017-10-26T17:48:10.836Z,101492
2017-10-26T17:50:37.733Z,101491
2017-10-26T17:53:03.899Z,101491
2017-10-26T17:55:30.868Z,101495
2017-10-26T17:57:57.033Z,101496
2017-10-26T18:00:23.223Z,101498
2017-10-26T18:02:49.393Z,101495
2017-10-26T18:05:15.764Z,101496
2017-10-26T18:07:41.940Z,101506
2017-10-26T18:10:08.117Z,101506
2017-10-26T18:12:34.368Z,101503
2017-10-26T18:15:01.085Z,101503
2017-10-26T18:17:27.269Z,101502
2017-10-26T18:19:53.479Z,101506
2017-10-26T18:22:19.668Z,101505
2017-10-26T18:24:45.857Z,101496
2017-10-26T18:27:12.058Z,101490
2017-10-26T18:29:38.229Z,101490
2017-10-26T18:32:05.199Z,101490
2017-10-26T18:34:31.436Z,101482
2017-10-26T18:36:57.630Z,101489
2017-10-26T18:39:24.576Z,101485
2017-10-26T18:41:51.532Z,101482
2017-10-26T18:44:18.012Z,101482
2017-10-26T18:46:44.441Z,101484
2017-10-26T18:49:11.054Z,101478
2017-10-26T18:51:37.501Z,101478
2017-10-26T18:54:03.991Z,101480
2017-10-26T18:56:31.156Z,101479
2017-10-26T18:58:58.103Z,101481
2017-10-26T19:01:24.287Z,101472
2017-10-26T19:03:50.506Z,101466
2017-10-26T19:06:16.683Z,101478
2017-10-26T19:08:42.913Z,101478
2017-10-26T19:11:09.223Z,101468
2017-10-26T19:13:36.164Z,101468
2017-10-26T19:16:03.099Z,101470
2017-10-26T19:18:29.333Z,101469
2017-10-26T19:20:55.523Z,101473
2017-10-26T19:23:21.709Z,101473
2017-10-26T19:25:47.939Z,101475
2017-10-26T19:28:14.164Z,101466
2017-10-26T19:30:40.352Z,101468
2017-10-26T19:33:07.237Z,101470
2017-10-26T19:35:33.780Z,101466
2017-10-26T19:38:00.385Z,101464
2017-10-26T19:40:27.680Z,101474
2017-10-26T19:42:53.890Z,101473
2017-10-26T19:45:20.159Z,101470
2017-10-26T19:47:47.190Z,101463
2017-10-26T19:50:13.369Z,101461
2017-10-26T19:52:40.604Z,101464
2017-10-26T19:55:06.852Z,101469
2017-10-26T19:57:33.809Z,101467
2017-10-26T20:00:00.761Z,101476
2017-10-26T20:02:26.940Z,101471
2017-10-26T20:04:53.436Z,101471
2017-10-26T20:07:19.656Z,101474
2017-10-26T20:09:45.848Z,101479
2017-10-26T20:12:12.088Z,101461
2017-10-26T20:14:39.040Z,101461
2017-10-26T20:17:06.025Z,101471
2017-10-26T20:19:32.204Z,101472
2017-10-26T20:21:59.140Z,101473
2017-10-26T20:24:25.345Z,101468
2017-10-26T20:26:51.546Z,101469
2017-10-26T20:29:17.700Z,101469
2017-10-26T20:31:44.095Z,101465
2017-10-26T20:34:10.275Z,101463
2017-10-26T20:36:36.506Z,101463
2017-10-26T20:39:02.763Z,101455
2017-10-26T20:41:28.958Z,101450
2017-10-26T20:43:55.131Z,101447
2017-10-26T20:46:21.663Z,101432
2017-10-26T20:48:47.833Z,101437
2017-10-26T20:51:20.865Z,101431
2017-10-26T20:53:53.317Z,101431
2017-10-26T20:56:25.760Z,101431
2017-10-26T20:58:58.208Z,101433
2017-10-26T21:04:28.716Z,101419
2017-10-26T21:06:55.652Z,101430
2017-10-26T21:09:24.761Z,101429
2017-10-26T21:11:57.756Z,101429
2017-10-26T21:14:27.900Z,101433
2017-10-26T21:16:54.080Z,101420
2017-10-26T21:19:20.255Z,101421
2017-10-26T21:21:46.472Z,101420
2017-10-26T21:24:12.671Z,101419
2017-10-26T21:26:39.587Z,101403
2017-10-26T21:29:05.768Z,101406
2017-10-26T21:31:31.988Z,101400
2017-10-26T21:33:58.162Z,101402
2017-10-26T21:36:24.339Z,101391
2017-10-26T21:38:51.282Z,101397
2017-10-26T21:41:18.180Z,101397
2017-10-26T21:43:44.364Z,101400
2017-10-26T21:46:10.559Z,101394
2017-10-26T21:48:36.728Z,101393
2017-10-26T21:51:02.899Z,101394
2017-10-26T21:53:29.082Z,101387
2017-10-26T21:55:55.245Z,101388
2017-10-26T21:58:21.438Z,101386
2017-10-26T22:00:47.626Z,101378
2017-10-26T22:03:15.381Z,101377
2017-10-26T22:05:41.536Z,101373
2017-10-26T22:08:07.725Z,101372
2017-10-26T22:10:33.916Z,101360
2017-10-26T22:13:00.078Z,101359
2017-10-26T22:15:26.253Z,101362
2017-10-26T22:17:52.444Z,101358
2017-10-26T22:20:18.624Z,101359
2017-10-26T22:22:44.791Z,101368
2017-10-26T22:25:10.971Z,101369
2017-10-26T22:27:37.195Z,101369
2017-10-26T22:30:03.361Z,101370
2017-10-26T22:32:29.535Z,101367
2017-10-26T22:34:55.707Z,101360
2017-10-26T22:37:22.026Z,101369
2017-10-26T22:39:48.198Z,101363
2017-10-26T22:42:15.107Z,101354
2017-10-26T22:44:41.256Z,101364
2017-10-26T22:47:07.437Z,101370
2017-10-26T22:49:33.600Z,101364
2017-10-26T22:51:59.768Z,101383
2017-10-26T22:54:25.993Z,101371
2017-10-26T22:56:52.157Z,101376
2017-10-26T22:59:18.329Z,101371
2017-10-26T23:01:45.273Z,101364
2017-10-26T23:04:12.179Z,101362
2017-10-26T23:06:38.387Z,101358
2017-10-26T23:09:04.664Z,101358
2017-10-26T23:11:30.854Z,101354
2017-10-26T23:13:57.031Z,101354
2017-10-26T23:16:23.941Z,101366
2017-10-26T23:18:50.113Z,101360
2017-10-26T23:21:16.319Z,101361
2017-10-26T23:23:43.235Z,101359
2017-10-26T23:26:09.416Z,101358
2017-10-26T23:28:35.617Z,101358
2017-10-26T23:31:01.820Z,101366
2017-10-26T23:33:27.992Z,101364
2017-10-26T23:35:54.912Z,101360
2017-10-26T23:38:21.065Z,101365
2017-10-26T23:40:47.216Z,101359
2017-10-26T23:43:13.392Z,101347
2017-10-26T23:45:39.553Z,101343
2017-10-26T23:48:05.779Z,101345
2017-10-26T23:50:31.987Z,101346
2017-10-26T23:52:58.894Z,101352
2017-10-26T23:55:25.064Z,101348
2017-10-26T23:57:52.222Z,101343
